sensor_id;sensor_type;location;lat;lon;timestamp;P1;durP1;ratioP1;P2;durP2;ratioP2
14849;SDS011;7517;48.400;11.770;2023-02-15T00:01:31;13.70;;;6.10;;
14849;SDS011;7517;48.400;11.770;2023-02-15T00:03:59;13.57;;;5.77;;
14849;SDS011;7517;48.400;11.770;2023-02-15T00:06:27;24.27;;;6.37;;
14849;SDS011;7517;48.400;11.770;2023-02-15T00:08:55;17.27;;;6.10;;
14849;SDS011;7517;48.400;11.770;2023-02-15T00:11:25;10.97;;;5.90;;
14849;SDS011;7517;48.400;11.770;2023-02-15T00:14:09;9.40;;;5.97;;
14849;SDS011;7517;48.400;11.770;2023-02-15T00:16:43;15.90;;;5.67;;
14849;SDS011;7517;48.400;11.770;2023-02-15T00:19:11;16.27;;;6.00;;
14849;SDS011;7517;48.400;11.770;2023-02-15T00:21:41;22.30;;;7.17;;
14849;SDS011;7517;48.400;11.770;2023-02-15T00:24:10;24.53;;;7.00;;
14849;SDS011;7517;48.400;11.770;2023-02-15T00:26:42;12.43;;;6.17;;
14849;SDS011;7517;48.400;11.770;2023-02-15T00:29:12;18.73;;;5.77;;
14849;SDS011;7517;48.400;11.770;2023-02-15T00:31:41;12.93;;;6.53;;
14849;SDS011;7517;48.400;11.770;2023-02-15T00:34:10;8.03;;;5.87;;
14849;SDS011;7517;48.400;11.770;2023-02-15T00:36:41;10.43;;;5.70;;
14849;SDS011;7517;48.400;11.770;2023-02-15T00:39:09;6.80;;;6.00;;
14849;SDS011;7517;48.400;11.770;2023-02-15T00:41:37;6.77;;;5.93;;
14849;SDS011;7517;48.400;11.770;2023-02-15T00:44:07;14.37;;;6.20;;
14849;SDS011;7517;48.400;11.770;2023-02-15T00:46:35;9.70;;;6.00;;
14849;SDS011;7517;48.400;11.770;2023-02-15T00:49:03;7.47;;;5.77;;
14849;SDS011;7517;48.400;11.770;2023-02-15T00:51:31;9.43;;;5.57;;
14849;SDS011;7517;48.400;11.770;2023-02-15T00:54:00;8.70;;;6.23;;
14849;SDS011;7517;48.400;11.770;2023-02-15T00:56:28;12.63;;;6.40;;
14849;SDS011;7517;48.400;11.770;2023-02-15T00:58:56;12.40;;;5.47;;
14849;SDS011;7517;48.400;11.770;2023-02-15T01:01:29;21.87;;;6.70;;
14849;SDS011;7517;48.400;11.770;2023-02-15T01:03:57;8.03;;;5.87;;
14849;SDS011;7517;48.400;11.770;2023-02-15T01:06:24;19.47;;;7.03;;
14849;SDS011;7517;48.400;11.770;2023-02-15T01:08:52;5.90;;;5.30;;
14849;SDS011;7517;48.400;11.770;2023-02-15T01:11:20;6.97;;;5.20;;
14849;SDS011;7517;48.400;11.770;2023-02-15T01:13:48;7.30;;;5.30;;
14849;SDS011;7517;48.400;11.770;2023-02-15T01:16:17;9.90;;;5.53;;
14849;SDS011;7517;48.400;11.770;2023-02-15T01:18:50;16.20;;;6.67;;
14849;SDS011;7517;48.400;11.770;2023-02-15T01:21:22;6.80;;;5.43;;
14849;SDS011;7517;48.400;11.770;2023-02-15T01:23:51;9.57;;;5.90;;
14849;SDS011;7517;48.400;11.770;2023-02-15T01:26:20;8.77;;;5.83;;
14849;SDS011;7517;48.400;11.770;2023-02-15T01:28:48;9.17;;;6.17;;
14849;SDS011;7517;48.400;11.770;2023-02-15T01:31:17;18.00;;;6.40;;
14849;SDS011;7517;48.400;11.770;2023-02-15T01:33:48;16.30;;;7.13;;
14849;SDS011;7517;48.400;11.770;2023-02-15T01:36:16;22.87;;;6.67;;
14849;SDS011;7517;48.400;11.770;2023-02-15T01:38:44;43.10;;;7.40;;
14849;SDS011;7517;48.400;11.770;2023-02-15T01:41:14;9.03;;;5.93;;
14849;SDS011;7517;48.400;11.770;2023-02-15T01:43:50;8.90;;;5.97;;
14849;SDS011;7517;48.400;11.770;2023-02-15T01:46:20;8.10;;;6.30;;
14849;SDS011;7517;48.400;11.770;2023-02-15T01:48:58;6.60;;;5.70;;
14849;SDS011;7517;48.400;11.770;2023-02-15T01:51:30;8.10;;;5.03;;
14849;SDS011;7517;48.400;11.770;2023-02-15T01:54:06;7.17;;;5.63;;
14849;SDS011;7517;48.400;11.770;2023-02-15T01:56:40;6.17;;;5.47;;
14849;SDS011;7517;48.400;11.770;2023-02-15T01:59:09;6.47;;;5.73;;
14849;SDS011;7517;48.400;11.770;2023-02-15T02:01:42;9.97;;;6.47;;
14849;SDS011;7517;48.400;11.770;2023-02-15T02:04:13;9.77;;;6.07;;
14849;SDS011;7517;48.400;11.770;2023-02-15T02:06:48;11.33;;;6.20;;
14849;SDS011;7517;48.400;11.770;2023-02-15T02:09:17;10.47;;;6.13;;
14849;SDS011;7517;48.400;11.770;2023-02-15T02:11:44;8.23;;;6.10;;
14849;SDS011;7517;48.400;11.770;2023-02-15T02:14:14;8.70;;;6.27;;
14849;SDS011;7517;48.400;11.770;2023-02-15T02:16:45;8.83;;;6.07;;
14849;SDS011;7517;48.400;11.770;2023-02-15T02:19:39;9.23;;;6.70;;
14849;SDS011;7517;48.400;11.770;2023-02-15T02:26:00;10.53;;;5.90;;
14849;SDS011;7517;48.400;11.770;2023-02-15T02:35:44;8.17;;;6.57;;
14849;SDS011;7517;48.400;11.770;2023-02-15T02:38:21;9.60;;;6.33;;
14849;SDS011;7517;48.400;11.770;2023-02-15T02:41:03;7.50;;;5.93;;
14849;SDS011;7517;48.400;11.770;2023-02-15T02:43:50;10.97;;;6.40;;
14849;SDS011;7517;48.400;11.770;2023-02-15T02:46:31;12.63;;;6.63;;
14849;SDS011;7517;48.400;11.770;2023-02-15T02:49:26;9.30;;;6.43;;
14849;SDS011;7517;48.400;11.770;2023-02-15T02:55:11;13.03;;;6.53;;
14849;SDS011;7517;48.400;11.770;2023-02-15T02:57:52;12.63;;;6.30;;
14849;SDS011;7517;48.400;11.770;2023-02-15T03:00:34;11.97;;;6.57;;
14849;SDS011;7517;48.400;11.770;2023-02-15T03:03:18;10.53;;;5.73;;
14849;SDS011;7517;48.400;11.770;2023-02-15T03:06:10;11.33;;;6.20;;
14849;SDS011;7517;48.400;11.770;2023-02-15T03:08:51;13.93;;;6.53;;
14849;SDS011;7517;48.400;11.770;2023-02-15T03:11:27;12.43;;;6.47;;
14849;SDS011;7517;48.400;11.770;2023-02-15T03:14:12;10.50;;;6.57;;
14849;SDS011;7517;48.400;11.770;2023-02-15T03:16:47;7.23;;;6.53;;
14849;SDS011;7517;48.400;11.770;2023-02-15T03:19:22;13.93;;;6.27;;
14849;SDS011;7517;48.400;11.770;2023-02-15T03:21:58;7.87;;;5.90;;
14849;SDS011;7517;48.400;11.770;2023-02-15T03:24:40;8.47;;;6.60;;
14849;SDS011;7517;48.400;11.770;2023-02-15T03:27:20;10.73;;;6.43;;
14849;SDS011;7517;48.400;11.770;2023-02-15T03:29:53;10.77;;;6.33;;
14849;SDS011;7517;48.400;11.770;2023-02-15T03:32:28;12.57;;;6.47;;
14849;SDS011;7517;48.400;11.770;2023-02-15T03:34:59;9.60;;;6.33;;
14849;SDS011;7517;48.400;11.770;2023-02-15T03:37:29;8.20;;;6.27;;
14849;SDS011;7517;48.400;11.770;2023-02-15T03:40:06;12.77;;;7.03;;
14849;SDS011;7517;48.400;11.770;2023-02-15T03:43:02;7.37;;;6.17;;
14849;SDS011;7517;48.400;11.770;2023-02-15T03:45:39;9.33;;;6.23;;
14849;SDS011;7517;48.400;11.770;2023-02-15T03:48:20;10.63;;;5.87;;
14849;SDS011;7517;48.400;11.770;2023-02-15T03:50:57;7.50;;;5.87;;
14849;SDS011;7517;48.400;11.770;2023-02-15T03:53:48;9.63;;;5.73;;
14849;SDS011;7517;48.400;11.770;2023-02-15T03:56:21;8.80;;;5.37;;
14849;SDS011;7517;48.400;11.770;2023-02-15T03:58:49;9.10;;;5.73;;
14849;SDS011;7517;48.400;11.770;2023-02-15T04:01:34;8.30;;;5.37;;
14849;SDS011;7517;48.400;11.770;2023-02-15T04:04:25;7.13;;;5.93;;
14849;SDS011;7517;48.400;11.770;2023-02-15T04:06:59;8.03;;;5.53;;
14849;SDS011;7517;48.400;11.770;2023-02-15T04:09:26;13.87;;;6.77;;
14849;SDS011;7517;48.400;11.770;2023-02-15T04:12:12;7.60;;;5.77;;
14849;SDS011;7517;48.400;11.770;2023-02-15T04:14:40;16.23;;;6.20;;
14849;SDS011;7517;48.400;11.770;2023-02-15T04:17:24;8.53;;;6.10;;
14849;SDS011;7517;48.400;11.770;2023-02-15T04:19:56;6.77;;;5.73;;
14849;SDS011;7517;48.400;11.770;2023-02-15T04:22:43;6.87;;;5.43;;
14849;SDS011;7517;48.400;11.770;2023-02-15T04:25:28;7.10;;;5.43;;
14849;SDS011;7517;48.400;11.770;2023-02-15T04:27:57;8.20;;;6.50;;
14849;SDS011;7517;48.400;11.770;2023-02-15T04:30:24;7.73;;;6.60;;
14849;SDS011;7517;48.400;11.770;2023-02-15T04:32:53;9.63;;;6.33;;
14849;SDS011;7517;48.400;11.770;2023-02-15T04:35:28;10.93;;;6.80;;
14849;SDS011;7517;48.400;11.770;2023-02-15T04:38:01;8.20;;;6.10;;
14849;SDS011;7517;48.400;11.770;2023-02-15T04:40:42;8.47;;;6.17;;
14849;SDS011;7517;48.400;11.770;2023-02-15T04:43:14;9.07;;;5.80;;
14849;SDS011;7517;48.400;11.770;2023-02-15T04:45:49;8.30;;;5.77;;
14849;SDS011;7517;48.400;11.770;2023-02-15T04:48:25;10.07;;;6.10;;
14849;SDS011;7517;48.400;11.770;2023-02-15T04:50:52;15.03;;;6.20;;
14849;SDS011;7517;48.400;11.770;2023-02-15T04:53:20;11.07;;;5.40;;
14849;SDS011;7517;48.400;11.770;2023-02-15T04:55:47;9.03;;;5.70;;
14849;SDS011;7517;48.400;11.770;2023-02-15T04:58:15;10.13;;;5.83;;
14849;SDS011;7517;48.400;11.770;2023-02-15T05:00:43;9.17;;;6.00;;
14849;SDS011;7517;48.400;11.770;2023-02-15T05:03:10;6.50;;;5.73;;
14849;SDS011;7517;48.400;11.770;2023-02-15T05:05:37;11.23;;;6.37;;
14849;SDS011;7517;48.400;11.770;2023-02-15T05:08:05;6.70;;;5.63;;
14849;SDS011;7517;48.400;11.770;2023-02-15T05:10:32;7.20;;;5.60;;
14849;SDS011;7517;48.400;11.770;2023-02-15T05:13:01;5.97;;;5.33;;
14849;SDS011;7517;48.400;11.770;2023-02-15T05:15:30;6.97;;;5.77;;
14849;SDS011;7517;48.400;11.770;2023-02-15T05:17:58;6.87;;;5.63;;
14849;SDS011;7517;48.400;11.770;2023-02-15T05:20:26;8.03;;;6.43;;
14849;SDS011;7517;48.400;11.770;2023-02-15T05:22:54;7.60;;;5.83;;
14849;SDS011;7517;48.400;11.770;2023-02-15T05:25:22;8.37;;;5.50;;
14849;SDS011;7517;48.400;11.770;2023-02-15T05:28:07;6.30;;;5.27;;
14849;SDS011;7517;48.400;11.770;2023-02-15T05:30:49;9.43;;;6.10;;
14849;SDS011;7517;48.400;11.770;2023-02-15T05:33:30;8.73;;;6.20;;
14849;SDS011;7517;48.400;11.770;2023-02-15T05:35:57;7.07;;;5.73;;
14849;SDS011;7517;48.400;11.770;2023-02-15T05:38:25;8.93;;;6.00;;
14849;SDS011;7517;48.400;11.770;2023-02-15T05:40:52;9.63;;;6.03;;
14849;SDS011;7517;48.400;11.770;2023-02-15T05:43:20;10.10;;;6.10;;
14849;SDS011;7517;48.400;11.770;2023-02-15T05:45:50;9.23;;;6.73;;
14849;SDS011;7517;48.400;11.770;2023-02-15T05:48:20;13.13;;;6.30;;
14849;SDS011;7517;48.400;11.770;2023-02-15T05:50:56;9.40;;;6.87;;
14849;SDS011;7517;48.400;11.770;2023-02-15T05:53:25;8.00;;;6.50;;
14849;SDS011;7517;48.400;11.770;2023-02-15T05:55:52;11.47;;;7.40;;
14849;SDS011;7517;48.400;11.770;2023-02-15T05:58:24;8.73;;;5.93;;
14849;SDS011;7517;48.400;11.770;2023-02-15T06:00:53;11.03;;;7.03;;
14849;SDS011;7517;48.400;11.770;2023-02-15T06:03:21;11.43;;;6.70;;
14849;SDS011;7517;48.400;11.770;2023-02-15T06:05:49;15.07;;;6.60;;
14849;SDS011;7517;48.400;11.770;2023-02-15T06:08:16;8.27;;;6.50;;
14849;SDS011;7517;48.400;11.770;2023-02-15T06:10:44;18.43;;;6.70;;
14849;SDS011;7517;48.400;11.770;2023-02-15T06:13:12;9.77;;;6.90;;
14849;SDS011;7517;48.400;11.770;2023-02-15T06:15:39;15.93;;;7.23;;
14849;SDS011;7517;48.400;11.770;2023-02-15T06:18:08;22.03;;;6.83;;
14849;SDS011;7517;48.400;11.770;2023-02-15T06:20:35;14.47;;;7.13;;
14849;SDS011;7517;48.400;11.770;2023-02-15T06:23:02;20.83;;;8.00;;
14849;SDS011;7517;48.400;11.770;2023-02-15T06:25:30;20.47;;;7.60;;
14849;SDS011;7517;48.400;11.770;2023-02-15T06:27:57;17.10;;;8.03;;
14849;SDS011;7517;48.400;11.770;2023-02-15T06:30:24;13.27;;;7.90;;
14849;SDS011;7517;48.400;11.770;2023-02-15T06:32:51;16.77;;;8.37;;
14849;SDS011;7517;48.400;11.770;2023-02-15T06:35:20;9.50;;;7.47;;
14849;SDS011;7517;48.400;11.770;2023-02-15T06:37:47;29.17;;;8.50;;
14849;SDS011;7517;48.400;11.770;2023-02-15T06:40:15;19.93;;;7.97;;
14849;SDS011;7517;48.400;11.770;2023-02-15T06:42:46;12.13;;;8.03;;
14849;SDS011;7517;48.400;11.770;2023-02-15T06:45:13;13.13;;;8.40;;
14849;SDS011;7517;48.400;11.770;2023-02-15T06:47:40;9.90;;;7.73;;
14849;SDS011;7517;48.400;11.770;2023-02-15T06:50:08;18.53;;;7.33;;
14849;SDS011;7517;48.400;11.770;2023-02-15T06:52:38;12.83;;;7.73;;
14849;SDS011;7517;48.400;11.770;2023-02-15T06:55:05;13.63;;;8.10;;
14849;SDS011;7517;48.400;11.770;2023-02-15T06:57:33;14.33;;;7.93;;
14849;SDS011;7517;48.400;11.770;2023-02-15T07:00:00;9.90;;;6.97;;
14849;SDS011;7517;48.400;11.770;2023-02-15T07:02:29;17.37;;;8.00;;
14849;SDS011;7517;48.400;11.770;2023-02-15T07:04:57;16.00;;;8.83;;
14849;SDS011;7517;48.400;11.770;2023-02-15T07:07:24;20.53;;;8.47;;
14849;SDS011;7517;48.400;11.770;2023-02-15T07:09:53;14.03;;;8.67;;
14849;SDS011;7517;48.400;11.770;2023-02-15T07:12:20;22.37;;;9.67;;
14849;SDS011;7517;48.400;11.770;2023-02-15T07:15:05;18.70;;;8.90;;
14849;SDS011;7517;48.400;11.770;2023-02-15T07:17:34;15.60;;;9.57;;
14849;SDS011;7517;48.400;11.770;2023-02-15T07:20:02;12.77;;;8.33;;
14849;SDS011;7517;48.400;11.770;2023-02-15T07:22:32;11.73;;;7.77;;
14849;SDS011;7517;48.400;11.770;2023-02-15T07:25:02;12.87;;;7.87;;
14849;SDS011;7517;48.400;11.770;2023-02-15T07:27:30;11.07;;;6.90;;
14849;SDS011;7517;48.400;11.770;2023-02-15T07:30:03;10.23;;;7.43;;
14849;SDS011;7517;48.400;11.770;2023-02-15T07:32:32;11.50;;;7.33;;
14849;SDS011;7517;48.400;11.770;2023-02-15T07:35:00;12.67;;;8.30;;
14849;SDS011;7517;48.400;11.770;2023-02-15T07:37:27;12.63;;;7.27;;
14849;SDS011;7517;48.400;11.770;2023-02-15T07:39:54;10.10;;;7.53;;
14849;SDS011;7517;48.400;11.770;2023-02-15T07:42:23;12.03;;;7.77;;
14849;SDS011;7517;48.400;11.770;2023-02-15T07:44:50;10.57;;;6.57;;
14849;SDS011;7517;48.400;11.770;2023-02-15T07:47:18;7.90;;;6.40;;
14849;SDS011;7517;48.400;11.770;2023-02-15T07:49:45;8.57;;;6.17;;
14849;SDS011;7517;48.400;11.770;2023-02-15T07:52:14;12.40;;;7.27;;
14849;SDS011;7517;48.400;11.770;2023-02-15T07:54:41;13.70;;;6.83;;
14849;SDS011;7517;48.400;11.770;2023-02-15T07:57:08;14.13;;;7.20;;
14849;SDS011;7517;48.400;11.770;2023-02-15T07:59:38;13.23;;;7.07;;
14849;SDS011;7517;48.400;11.770;2023-02-15T08:02:07;17.13;;;7.17;;
14849;SDS011;7517;48.400;11.770;2023-02-15T08:04:36;9.90;;;7.13;;
14849;SDS011;7517;48.400;11.770;2023-02-15T08:07:04;10.17;;;6.90;;
14849;SDS011;7517;48.400;11.770;2023-02-15T08:09:31;10.40;;;6.87;;
14849;SDS011;7517;48.400;11.770;2023-02-15T08:11:59;10.03;;;7.67;;
14849;SDS011;7517;48.400;11.770;2023-02-15T08:14:27;14.57;;;8.57;;
14849;SDS011;7517;48.400;11.770;2023-02-15T08:16:55;15.00;;;8.57;;
14849;SDS011;7517;48.400;11.770;2023-02-15T08:19:28;15.57;;;8.23;;
14849;SDS011;7517;48.400;11.770;2023-02-15T08:22:00;11.93;;;7.07;;
14849;SDS011;7517;48.400;11.770;2023-02-15T08:24:30;10.77;;;7.07;;
14849;SDS011;7517;48.400;11.770;2023-02-15T08:26:59;13.27;;;7.63;;
14849;SDS011;7517;48.400;11.770;2023-02-15T08:29:28;13.43;;;7.07;;
14849;SDS011;7517;48.400;11.770;2023-02-15T08:31:58;10.37;;;6.43;;
14849;SDS011;7517;48.400;11.770;2023-02-15T08:34:28;9.00;;;6.47;;
14849;SDS011;7517;48.400;11.770;2023-02-15T08:37:00;9.17;;;6.13;;
14849;SDS011;7517;48.400;11.770;2023-02-15T08:39:31;8.37;;;6.30;;
14849;SDS011;7517;48.400;11.770;2023-02-15T08:41:58;13.47;;;7.17;;
14849;SDS011;7517;48.400;11.770;2023-02-15T08:44:25;12.47;;;7.37;;
14849;SDS011;7517;48.400;11.770;2023-02-15T08:46:53;13.93;;;8.10;;
14849;SDS011;7517;48.400;11.770;2023-02-15T08:49:23;11.90;;;7.50;;
14849;SDS011;7517;48.400;11.770;2023-02-15T08:51:52;15.73;;;8.50;;
14849;SDS011;7517;48.400;11.770;2023-02-15T08:54:20;14.83;;;8.13;;
14849;SDS011;7517;48.400;11.770;2023-02-15T08:56:47;13.23;;;7.53;;
14849;SDS011;7517;48.400;11.770;2023-02-15T08:59:15;12.57;;;7.40;;
14849;SDS011;7517;48.400;11.770;2023-02-15T09:01:45;12.87;;;7.33;;
14849;SDS011;7517;48.400;11.770;2023-02-15T09:04:14;10.47;;;7.17;;
14849;SDS011;7517;48.400;11.770;2023-02-15T09:06:43;17.27;;;7.40;;
14849;SDS011;7517;48.400;11.770;2023-02-15T09:09:13;11.47;;;7.20;;
14849;SDS011;7517;48.400;11.770;2023-02-15T09:11:43;10.80;;;7.10;;
14849;SDS011;7517;48.400;11.770;2023-02-15T09:14:13;12.37;;;7.30;;
14849;SDS011;7517;48.400;11.770;2023-02-15T09:16:43;9.90;;;6.97;;
14849;SDS011;7517;48.400;11.770;2023-02-15T09:19:13;14.47;;;7.97;;
14849;SDS011;7517;48.400;11.770;2023-02-15T09:21:41;10.27;;;7.50;;
14849;SDS011;7517;48.400;11.770;2023-02-15T09:24:10;16.77;;;7.90;;
14849;SDS011;7517;48.400;11.770;2023-02-15T09:26:40;12.70;;;7.70;;
14849;SDS011;7517;48.400;11.770;2023-02-15T09:29:10;11.43;;;7.97;;
14849;SDS011;7517;48.400;11.770;2023-02-15T09:31:40;10.27;;;7.13;;
14849;SDS011;7517;48.400;11.770;2023-02-15T09:34:10;14.60;;;8.07;;
14849;SDS011;7517;48.400;11.770;2023-02-15T09:36:39;11.13;;;7.83;;
14849;SDS011;7517;48.400;11.770;2023-02-15T09:39:09;16.33;;;8.13;;
14849;SDS011;7517;48.400;11.770;2023-02-15T09:45:09;12.30;;;7.93;;
14849;SDS011;7517;48.400;11.770;2023-02-15T09:51:17;19.87;;;9.13;;
14849;SDS011;7517;48.400;11.770;2023-02-15T09:54:09;11.60;;;8.27;;
14849;SDS011;7517;48.400;11.770;2023-02-15T09:56:53;10.27;;;7.20;;
14849;SDS011;7517;48.400;11.770;2023-02-15T09:59:33;12.20;;;7.90;;
14849;SDS011;7517;48.400;11.770;2023-02-15T10:02:20;14.50;;;8.73;;
14849;SDS011;7517;48.400;11.770;2023-02-15T10:05:11;10.17;;;7.23;;
14849;SDS011;7517;48.400;11.770;2023-02-15T10:08:08;9.03;;;6.60;;
14849;SDS011;7517;48.400;11.770;2023-02-15T10:11:05;12.07;;;6.87;;
14849;SDS011;7517;48.400;11.770;2023-02-15T10:14:02;10.70;;;7.70;;
14849;SDS011;7517;48.400;11.770;2023-02-15T10:16:50;13.53;;;8.90;;
14849;SDS011;7517;48.400;11.770;2023-02-15T10:19:35;11.50;;;8.60;;
14849;SDS011;7517;48.400;11.770;2023-02-15T10:22:14;14.43;;;9.10;;
14849;SDS011;7517;48.400;11.770;2023-02-15T10:25:06;12.93;;;8.63;;
14849;SDS011;7517;48.400;11.770;2023-02-15T10:28:06;13.07;;;8.60;;
14849;SDS011;7517;48.400;11.770;2023-02-15T10:30:42;12.63;;;8.53;;
14849;SDS011;7517;48.400;11.770;2023-02-15T10:33:17;11.90;;;8.80;;
14849;SDS011;7517;48.400;11.770;2023-02-15T10:36:07;16.30;;;8.90;;
14849;SDS011;7517;48.400;11.770;2023-02-15T10:39:07;11.50;;;8.63;;
14849;SDS011;7517;48.400;11.770;2023-02-15T10:41:48;12.87;;;8.83;;
14849;SDS011;7517;48.400;11.770;2023-02-15T10:44:39;12.47;;;9.00;;
14849;SDS011;7517;48.400;11.770;2023-02-15T10:47:34;13.10;;;8.63;;
14849;SDS011;7517;48.400;11.770;2023-02-15T10:50:27;12.60;;;8.57;;
14849;SDS011;7517;48.400;11.770;2023-02-15T10:53:17;11.70;;;8.57;;
14849;SDS011;7517;48.400;11.770;2023-02-15T10:56:08;11.83;;;8.03;;
14849;SDS011;7517;48.400;11.770;2023-02-15T10:59:05;11.37;;;8.83;;
14849;SDS011;7517;48.400;11.770;2023-02-15T11:02:20;12.17;;;8.27;;
14849;SDS011;7517;48.400;11.770;2023-02-15T11:05:26;12.57;;;9.37;;
14849;SDS011;7517;48.400;11.770;2023-02-15T11:08:14;11.63;;;8.30;;
14849;SDS011;7517;48.400;11.770;2023-02-15T11:10:49;14.57;;;9.17;;
14849;SDS011;7517;48.400;11.770;2023-02-15T11:13:27;13.37;;;8.97;;
14849;SDS011;7517;48.400;11.770;2023-02-15T11:16:07;11.93;;;8.77;;
14849;SDS011;7517;48.400;11.770;2023-02-15T11:18:57;12.93;;;8.87;;
14849;SDS011;7517;48.400;11.770;2023-02-15T11:21:36;11.80;;;8.80;;
14849;SDS011;7517;48.400;11.770;2023-02-15T11:24:10;12.50;;;8.87;;
14849;SDS011;7517;48.400;11.770;2023-02-15T11:26:41;14.67;;;9.43;;
14849;SDS011;7517;48.400;11.770;2023-02-15T11:29:13;12.50;;;9.30;;
14849;SDS011;7517;48.400;11.770;2023-02-15T11:34:59;12.87;;;9.33;;
14849;SDS011;7517;48.400;11.770;2023-02-15T11:37:47;12.53;;;9.03;;
14849;SDS011;7517;48.400;11.770;2023-02-15T11:40:26;12.47;;;9.57;;
14849;SDS011;7517;48.400;11.770;2023-02-15T11:43:16;13.70;;;9.63;;
14849;SDS011;7517;48.400;11.770;2023-02-15T11:48:46;12.63;;;8.47;;
14849;SDS011;7517;48.400;11.770;2023-02-15T11:51:18;13.70;;;9.53;;
14849;SDS011;7517;48.400;11.770;2023-02-15T11:53:49;12.90;;;9.00;;
14849;SDS011;7517;48.400;11.770;2023-02-15T11:56:20;12.73;;;8.87;;
14849;SDS011;7517;48.400;11.770;2023-02-15T11:58:55;13.13;;;9.83;;
14849;SDS011;7517;48.400;11.770;2023-02-15T12:01:52;11.73;;;9.53;;
14849;SDS011;7517;48.400;11.770;2023-02-15T12:04:32;14.13;;;9.10;;
14849;SDS011;7517;48.400;11.770;2023-02-15T12:07:09;10.83;;;8.03;;
14849;SDS011;7517;48.400;11.770;2023-02-15T12:09:45;12.37;;;8.80;;
14849;SDS011;7517;48.400;11.770;2023-02-15T12:12:31;8.93;;;8.00;;
14849;SDS011;7517;48.400;11.770;2023-02-15T12:15:29;12.50;;;8.87;;
14849;SDS011;7517;48.400;11.770;2023-02-15T12:18:03;12.40;;;9.37;;
14849;SDS011;7517;48.400;11.770;2023-02-15T12:20:47;12.07;;;9.40;;
14849;SDS011;7517;48.400;11.770;2023-02-15T12:23:19;12.60;;;8.90;;
14849;SDS011;7517;48.400;11.770;2023-02-15T12:26:07;10.70;;;8.67;;
14849;SDS011;7517;48.400;11.770;2023-02-15T12:28:42;12.67;;;9.53;;
14849;SDS011;7517;48.400;11.770;2023-02-15T12:31:22;11.83;;;9.40;;
14849;SDS011;7517;48.400;11.770;2023-02-15T12:33:58;12.37;;;9.23;;
14849;SDS011;7517;48.400;11.770;2023-02-15T12:36:44;10.77;;;8.70;;
14849;SDS011;7517;48.400;11.770;2023-02-15T12:39:20;12.67;;;9.27;;
14849;SDS011;7517;48.400;11.770;2023-02-15T12:42:08;12.60;;;8.87;;
14849;SDS011;7517;48.400;11.770;2023-02-15T12:44:57;11.57;;;9.57;;
14849;SDS011;7517;48.400;11.770;2023-02-15T12:47:45;9.63;;;8.37;;
14849;SDS011;7517;48.400;11.770;2023-02-15T12:50:38;10.60;;;8.00;;
14849;SDS011;7517;48.400;11.770;2023-02-15T12:53:08;9.73;;;8.13;;
14849;SDS011;7517;48.400;11.770;2023-02-15T12:55:50;10.37;;;8.67;;
14849;SDS011;7517;48.400;11.770;2023-02-15T12:58:21;12.07;;;8.70;;
14849;SDS011;7517;48.400;11.770;2023-02-15T13:01:01;11.80;;;9.10;;
14849;SDS011;7517;48.400;11.770;2023-02-15T13:03:52;11.40;;;8.03;;
14849;SDS011;7517;48.400;11.770;2023-02-15T13:06:24;12.97;;;9.00;;
14849;SDS011;7517;48.400;11.770;2023-02-15T13:08:56;10.70;;;8.23;;
14849;SDS011;7517;48.400;11.770;2023-02-15T13:11:33;9.77;;;8.13;;
14849;SDS011;7517;48.400;11.770;2023-02-15T13:14:16;11.67;;;9.10;;
14849;SDS011;7517;48.400;11.770;2023-02-15T13:16:58;10.40;;;8.70;;
14849;SDS011;7517;48.400;11.770;2023-02-15T13:19:33;9.33;;;8.30;;
14849;SDS011;7517;48.400;11.770;2023-02-15T13:22:10;10.73;;;7.87;;
14849;SDS011;7517;48.400;11.770;2023-02-15T13:24:45;10.60;;;8.63;;
14849;SDS011;7517;48.400;11.770;2023-02-15T13:27:17;14.60;;;8.70;;
14849;SDS011;7517;48.400;11.770;2023-02-15T13:29:51;10.70;;;8.70;;
14849;SDS011;7517;48.400;11.770;2023-02-15T13:32:26;10.13;;;8.97;;
14849;SDS011;7517;48.400;11.770;2023-02-15T13:34:58;11.33;;;9.13;;
14849;SDS011;7517;48.400;11.770;2023-02-15T13:37:36;12.77;;;9.50;;
14849;SDS011;7517;48.400;11.770;2023-02-15T13:40:52;10.20;;;8.50;;
14849;SDS011;7517;48.400;11.770;2023-02-15T13:43:31;10.73;;;8.70;;
14849;SDS011;7517;48.400;11.770;2023-02-15T13:46:14;10.93;;;8.90;;
14849;SDS011;7517;48.400;11.770;2023-02-15T13:49:04;13.67;;;10.30;;
14849;SDS011;7517;48.400;11.770;2023-02-15T13:51:48;12.37;;;9.80;;
14849;SDS011;7517;48.400;11.770;2023-02-15T13:54:37;13.33;;;9.77;;
14849;SDS011;7517;48.400;11.770;2023-02-15T13:57:48;11.37;;;8.13;;
14849;SDS011;7517;48.400;11.770;2023-02-15T14:00:42;10.93;;;9.17;;
14849;SDS011;7517;48.400;11.770;2023-02-15T14:06:39;12.33;;;9.37;;
14849;SDS011;7517;48.400;11.770;2023-02-15T14:09:39;10.73;;;9.03;;
14849;SDS011;7517;48.400;11.770;2023-02-15T14:12:24;11.77;;;9.00;;
14849;SDS011;7517;48.400;11.770;2023-02-15T14:15:15;12.17;;;9.47;;
14849;SDS011;7517;48.400;11.770;2023-02-15T14:18:01;12.90;;;9.83;;
14849;SDS011;7517;48.400;11.770;2023-02-15T14:20:51;11.37;;;8.97;;
14849;SDS011;7517;48.400;11.770;2023-02-15T14:23:37;13.53;;;9.40;;
14849;SDS011;7517;48.400;11.770;2023-02-15T14:26:21;9.57;;;8.50;;
14849;SDS011;7517;48.400;11.770;2023-02-15T14:29:05;11.77;;;8.83;;
14849;SDS011;7517;48.400;11.770;2023-02-15T14:31:53;12.47;;;8.93;;
14849;SDS011;7517;48.400;11.770;2023-02-15T14:34:30;12.17;;;9.10;;
14849;SDS011;7517;48.400;11.770;2023-02-15T14:37:09;14.43;;;9.53;;
14849;SDS011;7517;48.400;11.770;2023-02-15T14:39:42;11.67;;;8.77;;
14849;SDS011;7517;48.400;11.770;2023-02-15T14:42:39;10.87;;;8.70;;
14849;SDS011;7517;48.400;11.770;2023-02-15T14:45:16;11.47;;;9.03;;
14849;SDS011;7517;48.400;11.770;2023-02-15T14:47:53;10.40;;;8.53;;
14849;SDS011;7517;48.400;11.770;2023-02-15T14:50:39;11.93;;;8.97;;
14849;SDS011;7517;48.400;11.770;2023-02-15T14:53:20;11.93;;;8.63;;
14849;SDS011;7517;48.400;11.770;2023-02-15T14:56:12;15.23;;;8.63;;
14849;SDS011;7517;48.400;11.770;2023-02-15T15:01:51;12.57;;;9.33;;
14849;SDS011;7517;48.400;11.770;2023-02-15T15:04:27;13.20;;;9.70;;
14849;SDS011;7517;48.400;11.770;2023-02-15T15:07:01;14.10;;;9.93;;
14849;SDS011;7517;48.400;11.770;2023-02-15T15:09:41;10.97;;;8.97;;
14849;SDS011;7517;48.400;11.770;2023-02-15T15:12:13;14.40;;;9.57;;
14849;SDS011;7517;48.400;11.770;2023-02-15T15:15:11;12.33;;;9.13;;
14849;SDS011;7517;48.400;11.770;2023-02-15T15:17:59;12.43;;;8.97;;
14849;SDS011;7517;48.400;11.770;2023-02-15T15:20:42;10.80;;;8.50;;
14849;SDS011;7517;48.400;11.770;2023-02-15T15:26:24;11.43;;;8.97;;
14849;SDS011;7517;48.400;11.770;2023-02-15T15:28:59;11.27;;;9.03;;
14849;SDS011;7517;48.400;11.770;2023-02-15T15:31:37;12.17;;;9.27;;
14849;SDS011;7517;48.400;11.770;2023-02-15T15:34:21;12.07;;;8.73;;
14849;SDS011;7517;48.400;11.770;2023-02-15T15:37:44;10.87;;;8.57;;
14849;SDS011;7517;48.400;11.770;2023-02-15T15:41:03;11.73;;;8.43;;
14849;SDS011;7517;48.400;11.770;2023-02-15T15:43:48;11.80;;;9.37;;
14849;SDS011;7517;48.400;11.770;2023-02-15T15:47:20;11.83;;;8.63;;
14849;SDS011;7517;48.400;11.770;2023-02-15T15:50:10;18.27;;;11.17;;
14849;SDS011;7517;48.400;11.770;2023-02-15T15:52:46;16.40;;;11.60;;
14849;SDS011;7517;48.400;11.770;2023-02-15T15:55:18;16.90;;;11.97;;
14849;SDS011;7517;48.400;11.770;2023-02-15T15:57:53;18.47;;;12.03;;
14849;SDS011;7517;48.400;11.770;2023-02-15T16:00:35;16.80;;;12.43;;
14849;SDS011;7517;48.400;11.770;2023-02-15T16:03:13;19.00;;;13.40;;
14849;SDS011;7517;48.400;11.770;2023-02-15T16:05:42;19.93;;;14.63;;
14849;SDS011;7517;48.400;11.770;2023-02-15T16:08:14;24.27;;;15.00;;